Time;durP1;ratioP1;P1;durP2;ratioP2;P2;SDS_P1;SDS_P2;PMS_P1;PMS_P2;Temp;Humidity;BMP_temperature;BMP_pressure;BME280_temperature;BME280_humidity;BME280_pressure;Samples;Min_cycle;Max_cycle;Signal;HPM_P1;HPM_P2
2022/11/24 00:00:54;;;;;;;8.35;3.15;;;8.20;99.90;;;;;;5072719;28;20207;-66
2022/11/24 00:03:22;;;;;;;7.53;2.60;;;8.20;99.90;;;;;;5071980;28;20207;-65
2022/11/24 00:05:50;;;;;;;9.43;3.42;;;8.20;99.90;;;;;;5072382;28;20246;-66
2022/11/24 00:08:18;;;;;;;9.70;3.13;;;8.20;99.90;;;;;;5072967;28;20284;-63
2022/11/24 00:10:45;;;;;;;15.65;3.42;;;8.20;99.90;;;;;;5070698;28;20218;-64
2022/11/24 00:13:13;;;;;;;9.90;2.97;;;8.10;99.90;;;;;;5067621;28;20211;-63
2022/11/24 00:15:42;;;;;;;12.20;2.88;;;8.10;99.90;;;;;;5072586;28;20199;-64
2022/11/24 00:18:10;;;;;;;10.00;4.28;;;8.10;99.90;;;;;;5072606;28;20204;-64
2022/11/24 00:20:38;;;;;;;13.57;3.67;;;8.10;99.90;;;;;;5072487;28;20199;-65
2022/11/24 00:23:25;;;;;;;7.93;2.58;;;8.00;99.90;;;;;;5071376;28;20199;-64
2022/11/24 00:25:53;;;;;;;11.18;3.78;;;8.00;99.90;;;;;;5071190;28;20207;-65
2022/11/24 00:28:21;;;;;;;10.68;3.25;;;8.00;99.90;;;;;;5072047;28;20601;-65
2022/11/24 00:30:50;;;;;;;8.93;3.15;;;8.00;99.90;;;;;;5072712;28;20203;-65
2022/11/24 00:33:18;;;;;;;21.67;4.05;;;7.90;99.90;;;;;;5071210;28;20200;-66
2022/11/24 00:35:46;;;;;;;11.32;3.97;;;8.00;99.90;;;;;;5072289;28;20208;-64
2022/11/24 00:38:14;;;;;;;8.43;3.33;;;8.00;99.90;;;;;;5072432;28;20200;-65
2022/11/24 00:40:43;;;;;;;6.55;3.17;;;8.00;99.90;;;;;;5072565;28;20202;-65
2022/11/24 00:43:10;;;;;;;10.50;4.78;;;8.00;99.90;;;;;;5072539;28;20210;-65
2022/11/24 00:45:38;;;;;;;12.98;3.55;;;8.00;99.90;;;;;;5072102;28;20273;-65
2022/11/24 00:48:07;;;;;;;7.57;3.38;;;8.00;99.90;;;;;;5072082;28;20200;-66
2022/11/24 00:50:36;;;;;;;15.57;4.60;;;8.00;99.90;;;;;;5071471;28;20204;-66
2022/11/24 00:53:03;;;;;;;18.80;3.75;;;8.00;99.90;;;;;;5072080;28;20257;-65
2022/11/24 00:55:31;;;;;;;9.68;3.50;;;8.00;99.90;;;;;;5072109;28;20223;-65
2022/11/24 00:57:59;;;;;;;6.82;3.03;;;8.00;99.90;;;;;;5072349;28;20211;-65
2022/11/24 01:00:27;;;;;;;14.05;2.97;;;8.00;99.90;;;;;;5070680;28;20206;-65
2022/11/24 01:02:55;;;;;;;12.25;3.50;;;8.00;99.90;;;;;;5070773;28;20204;-65
2022/11/24 01:05:24;;;;;;;10.95;3.00;;;7.90;99.90;;;;;;5070772;28;20203;-66
2022/11/24 01:07:52;;;;;;;5.43;2.53;;;8.00;99.90;;;;;;5072129;28;20727;-66
2022/11/24 01:10:20;;;;;;;15.50;3.70;;;8.00;99.90;;;;;;5071824;28;20212;-66
2022/11/24 01:12:49;;;;;;;15.02;4.65;;;8.10;99.90;;;;;;5072214;28;20227;-65
2022/11/24 01:15:17;;;;;;;6.70;3.80;;;8.00;99.90;;;;;;5072011;28;20301;-65
2022/11/24 01:17:45;;;;;;;12.20;3.30;;;8.00;99.90;;;;;;5071946;28;20257;-65
2022/11/24 01:20:13;;;;;;;10.15;3.60;;;8.00;99.90;;;;;;5071468;28;20204;-66
2022/11/24 01:22:42;;;;;;;14.25;3.22;;;8.00;99.90;;;;;;5071740;28;20207;-66
2022/11/24 01:25:11;;;;;;;15.13;2.95;;;7.90;99.90;;;;;;5071906;28;20622;-66
2022/11/24 01:27:40;;;;;;;7.20;3.40;;;8.00;99.90;;;;;;5071283;28;20293;-65
2022/11/24 01:30:08;;;;;;;15.05;3.38;;;7.90;99.90;;;;;;5071603;28;20195;-66
2022/11/24 01:32:36;;;;;;;9.32;3.78;;;7.90;99.90;;;;;;5071625;28;20265;-66
2022/11/24 01:35:05;;;;;;;13.18;3.65;;;7.90;99.90;;;;;;5070825;28;20231;-66
2022/11/24 01:37:33;;;;;;;11.45;3.15;;;7.80;99.90;;;;;;5071842;28;20223;-65
2022/11/24 01:40:02;;;;;;;12.32;3.35;;;7.90;99.90;;;;;;5071910;28;20245;-65
2022/11/24 01:42:40;;;;;;;5.43;2.45;;;7.90;99.90;;;;;;5070248;28;20206;-65
2022/11/24 01:45:32;;;;;;;16.30;3.88;;;7.80;99.90;;;;;;5071576;28;20214;-65
2022/11/24 01:48:03;;;;;;;16.02;4.10;;;7.80;99.90;;;;;;5070688;28;20693;-65
2022/11/24 01:50:33;;;;;;;8.70;3.47;;;7.90;99.90;;;;;;5071351;28;20188;-65
2022/11/24 01:53:00;;;;;;;16.60;3.42;;;7.90;99.90;;;;;;5071024;28;20317;-65
2022/11/24 01:55:34;;;;;;;8.98;3.13;;;7.80;99.90;;;;;;5071455;28;20224;-65
2022/11/24 01:58:05;;;;;;;13.50;4.03;;;7.80;99.90;;;;;;5069353;28;20191;-66
2022/11/24 02:00:36;;;;;;;16.20;4.00;;;7.80;99.90;;;;;;5071881;28;20192;-64
2022/11/24 02:03:04;;;;;;;8.18;2.78;;;7.80;99.90;;;;;;5069322;28;20225;-65
2022/11/24 02:05:37;;;;;;;11.90;3.35;;;7.70;99.90;;;;;;5070490;28;20570;-64
2022/11/24 02:08:10;;;;;;;12.77;4.25;;;7.70;99.90;;;;;;5070904;28;20191;-64
2022/11/24 02:10:39;;;;;;;12.57;3.67;;;7.70;99.90;;;;;;5071107;28;20192;-64
2022/11/24 02:13:07;;;;;;;11.35;3.63;;;7.70;99.90;;;;;;5068533;28;20200;-64
2022/11/24 02:15:35;;;;;;;16.20;3.30;;;7.70;99.90;;;;;;5068490;28;20211;-65
2022/11/24 02:18:03;;;;;;;10.70;2.65;;;7.70;99.90;;;;;;5070705;28;20195;-64
2022/11/24 02:20:32;;;;;;;8.63;3.20;;;7.70;99.90;;;;;;5070295;28;20567;-65
2022/11/24 02:23:05;;;;;;;9.45;2.88;;;7.70;99.90;;;;;;5070830;28;20204;-66
2022/11/24 02:25:39;;;;;;;28.08;3.53;;;7.70;99.90;;;;;;5069607;28;20184;-66
2022/11/24 02:28:12;;;;;;;11.50;2.70;;;7.70;99.90;;;;;;5070568;28;20289;-65
2022/11/24 02:30:40;;;;;;;6.90;3.50;;;7.70;99.90;;;;;;5070781;28;20233;-65
2022/11/24 02:33:11;;;;;;;5.72;3.33;;;7.60;99.90;;;;;;5071827;28;20206;-65
2022/11/24 02:35:39;;;;;;;15.27;4.32;;;7.60;99.90;;;;;;5072674;28;20223;-64
2022/11/24 02:38:10;;;;;;;16.33;3.72;;;7.60;99.90;;;;;;5074837;28;20270;-65
2022/11/24 02:40:39;;;;;;;21.40;3.95;;;7.60;99.90;;;;;;5074193;28;20188;-65
2022/11/24 02:43:11;;;;;;;11.48;3.08;;;7.60;99.90;;;;;;5074515;28;20211;-65
2022/11/24 02:45:39;;;;;;;13.52;2.90;;;7.50;99.90;;;;;;5073754;28;20184;-64
2022/11/24 02:48:08;;;;;;;8.60;2.80;;;7.50;99.90;;;;;;5074357;28;20207;-64
2022/11/24 02:50:36;;;;;;;13.27;2.65;;;7.50;99.90;;;;;;5073923;28;20216;-64
2022/11/24 02:53:04;;;;;;;7.45;3.10;;;7.50;99.90;;;;;;5074539;28;20208;-65
2022/11/24 02:55:32;;;;;;;8.05;3.30;;;7.50;99.90;;;;;;5074575;28;20284;-65
2022/11/24 02:58:00;;;;;;;8.60;2.70;;;7.50;99.90;;;;;;5073914;28;20216;-66
2022/11/24 03:00:29;;;;;;;15.80;3.60;;;7.50;99.90;;;;;;5074310;28;20200;-66
2022/11/24 03:02:58;;;;;;;18.60;3.53;;;7.50;99.90;;;;;;5072933;28;20276;-64
2022/11/24 03:05:26;;;;;;;10.07;2.65;;;7.60;99.90;;;;;;5073503;28;20206;-64
2022/11/24 03:07:54;;;;;;;7.53;2.78;;;7.60;99.90;;;;;;5073791;28;20207;-65
2022/11/24 03:10:23;;;;;;;10.88;3.42;;;7.50;99.90;;;;;;5074766;28;20208;-65
2022/11/24 03:12:51;;;;;;;14.45;3.25;;;7.50;99.90;;;;;;5073349;28;20219;-66
2022/11/24 03:15:18;;;;;;;14.10;4.00;;;7.50;99.90;;;;;;5074356;28;20227;-65
2022/11/24 03:17:48;;;;;;;10.98;4.03;;;7.50;99.90;;;;;;5073617;28;20199;-64
2022/11/24 03:20:16;;;;;;;12.35;2.95;;;7.50;99.90;;;;;;5074849;28;20574;-64
2022/11/24 03:22:44;;;;;;;14.73;4.00;;;7.50;99.90;;;;;;5073049;28;20211;-64
2022/11/24 03:25:12;;;;;;;10.55;2.97;;;7.50;99.90;;;;;;5074142;28;20207;-64
2022/11/24 03:27:40;;;;;;;11.48;3.25;;;7.50;99.90;;;;;;5073266;28;20208;-65
2022/11/24 03:30:09;;;;;;;7.75;2.97;;;7.50;99.90;;;;;;5073731;28;20279;-64
2022/11/24 03:32:36;;;;;;;8.75;3.10;;;7.50;99.90;;;;;;5073368;28;20207;-65
2022/11/24 03:35:06;;;;;;;11.88;2.97;;;7.40;99.90;;;;;;5073611;28;20216;-65
2022/11/24 03:37:34;;;;;;;15.18;3.53;;;7.40;99.90;;;;;;5072414;28;20196;-66
2022/11/24 03:40:02;;;;;;;12.82;3.38;;;7.40;99.90;;;;;;5073838;28;20204;-65
2022/11/24 03:42:30;;;;;;;10.73;3.58;;;7.40;99.90;;;;;;5073355;28;20208;-64
2022/11/24 03:44:58;;;;;;;14.45;3.50;;;7.40;99.90;;;;;;5071244;28;20207;-65
2022/11/24 03:47:26;;;;;;;11.13;2.85;;;7.50;99.90;;;;;;5071881;28;20199;-65
2022/11/24 03:49:54;;;;;;;11.75;3.17;;;7.50;99.90;;;;;;5073075;28;20204;-64
2022/11/24 03:52:25;;;;;;;12.57;3.17;;;7.50;99.90;;;;;;5072944;28;20211;-65
2022/11/24 03:54:53;;;;;;;8.23;2.80;;;7.50;99.90;;;;;;5073174;28;20226;-65
2022/11/24 03:57:21;;;;;;;7.03;3.38;;;7.50;99.90;;;;;;5073507;28;20223;-65
2022/11/24 03:59:49;;;;;;;10.55;2.63;;;7.60;99.90;;;;;;5072693;28;20208;-65
2022/11/24 04:02:16;;;;;;;8.35;2.80;;;7.60;99.90;;;;;;5056821;28;20270;-65
2022/11/24 04:04:49;;;;;;;12.20;2.92;;;7.70;99.90;;;;;;5051762;28;20212;-65
2022/11/24 04:07:17;;;;;;;8.18;2.42;;;7.70;99.90;;;;;;5053258;28;20259;-65
2022/11/24 04:09:46;;;;;;;12.90;3.25;;;7.70;99.90;;;;;;5052896;28;20479;-65
2022/11/24 04:14:59;;;;;;;11.63;3.35;;;7.80;99.90;;;;;;5056832;28;20208;-65
2022/11/24 04:17:28;;;;;;;7.97;2.45;;;7.80;99.90;;;;;;5052908;28;20744;-65
2022/11/24 04:19:56;;;;;;;14.00;3.50;;;7.80;99.90;;;;;;5052756;28;20564;-65
2022/11/24 04:22:24;;;;;;;14.23;2.95;;;7.90;99.90;;;;;;5052733;28;20568;-66
2022/11/24 04:24:53;;;;;;;12.77;2.63;;;7.80;99.90;;;;;;5053191;28;20212;-66
2022/11/24 04:27:21;;;;;;;15.50;3.05;;;7.90;99.90;;;;;;5052846;28;20212;-65
2022/11/24 04:29:49;;;;;;;10.52;3.20;;;7.90;99.90;;;;;;5052493;28;20224;-66
2022/11/24 04:32:17;;;;;;;9.82;3.78;;;7.90;99.90;;;;;;5052343;28;20663;-66
2022/11/24 04:34:45;;;;;;;14.00;3.50;;;7.90;99.90;;;;;;5052514;28;20223;-65
2022/11/24 04:37:13;;;;;;;12.65;2.90;;;7.90;99.90;;;;;;5052070;28;20247;-66
2022/11/24 04:39:41;;;;;;;11.13;3.25;;;7.90;99.90;;;;;;5052669;28;20550;-65
2022/11/24 04:42:11;;;;;;;9.95;2.88;;;7.90;99.90;;;;;;5051991;28;20204;-65
2022/11/24 04:44:38;;;;;;;11.00;2.70;;;7.90;99.90;;;;;;5053066;28;20208;-65
2022/11/24 04:47:07;;;;;;;19.92;3.17;;;7.90;99.90;;;;;;5052108;28;20197;-66
2022/11/24 04:49:34;;;;;;;13.88;2.65;;;7.90;99.90;;;;;;5052782;28;20200;-66
2022/11/24 04:52:02;;;;;;;11.55;3.20;;;7.90;99.90;;;;;;5051746;28;20205;-65
2022/11/24 04:54:30;;;;;;;12.00;3.38;;;8.00;99.90;;;;;;5052833;28;20203;-65
2022/11/24 04:56:58;;;;;;;11.77;3.67;;;7.90;99.90;;;;;;5051237;28;20228;-65
2022/11/24 04:59:27;;;;;;;13.55;3.30;;;8.00;99.90;;;;;;5052743;28;20612;-65
2022/11/24 05:01:55;;;;;;;9.18;2.70;;;7.90;99.90;;;;;;5051124;28;20652;-66
2022/11/24 05:04:23;;;;;;;10.80;2.50;;;7.90;99.90;;;;;;5051036;28;20204;-65
2022/11/24 05:06:51;;;;;;;13.25;2.55;;;7.90;99.90;;;;;;5051892;28;20563;-66
2022/11/24 05:09:19;;;;;;;13.38;3.63;;;7.90;99.90;;;;;;5051893;28;20219;-66
2022/11/24 05:11:47;;;;;;;14.52;3.05;;;7.90;99.90;;;;;;5051943;28;20738;-65
2022/11/24 05:14:14;;;;;;;11.25;3.20;;;7.90;99.90;;;;;;5052278;28;20602;-65
2022/11/24 05:16:44;;;;;;;16.20;3.65;;;8.00;99.90;;;;;;5051901;28;20216;-65
2022/11/24 05:19:12;;;;;;;10.27;2.60;;;8.00;99.90;;;;;;5051486;28;20215;-65
2022/11/24 05:21:40;;;;;;;20.85;3.67;;;8.00;99.90;;;;;;5051709;28;20200;-65
2022/11/24 05:24:08;;;;;;;9.57;2.67;;;8.00;99.90;;;;;;5051832;28;20211;-65
2022/11/24 05:26:36;;;;;;;8.82;3.08;;;8.00;99.90;;;;;;5050293;28;20208;-66
2022/11/24 05:29:04;;;;;;;6.65;2.75;;;7.90;99.90;;;;;;5050208;28;20235;-65
2022/11/24 05:31:32;;;;;;;11.05;3.00;;;7.90;99.90;;;;;;5051813;28;20196;-65
2022/11/24 05:34:01;;;;;;;15.52;3.20;;;7.90;99.90;;;;;;5051412;28;20666;-65
2022/11/24 05:39:14;;;;;;;10.25;3.40;;;7.90;99.90;;;;;;5051611;28;20185;-66
2022/11/24 05:41:42;;;;;;;8.90;2.60;;;7.90;99.90;;;;;;5051371;28;20212;-66
2022/11/24 05:44:10;;;;;;;7.47;2.60;;;8.00;99.90;;;;;;5051265;28;20211;-65
2022/11/24 05:46:38;;;;;;;10.90;3.20;;;8.00;99.90;;;;;;5051243;28;20551;-65
2022/11/24 05:49:07;;;;;;;13.50;3.42;;;8.00;99.90;;;;;;5050340;28;20616;-65
2022/11/24 05:51:35;;;;;;;5.50;2.50;;;8.10;99.90;;;;;;5051121;28;20266;-66
2022/11/24 05:54:04;;;;;;;16.33;3.42;;;8.10;99.90;;;;;;5053602;28;20207;-64
2022/11/24 05:56:31;;;;;;;14.80;3.08;;;8.10;99.90;;;;;;5052288;28;20224;-64
2022/11/24 05:58:59;;;;;;;9.48;2.90;;;8.00;99.90;;;;;;5051592;28;20215;-65
2022/11/24 06:01:27;;;;;;;9.50;2.72;;;8.10;99.90;;;;;;5051012;28;20200;-64
2022/11/24 06:03:55;;;;;;;9.13;2.75;;;8.10;99.90;;;;;;5050674;28;20556;-64
2022/11/24 06:06:24;;;;;;;8.75;3.25;;;8.00;99.90;;;;;;5051139;28;20200;-66
2022/11/24 06:08:52;;;;;;;5.80;3.20;;;8.10;99.90;;;;;;5054832;28;20207;-65
2022/11/24 06:11:21;;;;;;;17.90;3.00;;;8.00;99.90;;;;;;5060856;28;20216;-65
2022/11/24 06:13:48;;;;;;;13.45;3.28;;;8.00;99.90;;;;;;5065217;28;20198;-65
2022/11/24 06:16:16;;;;;;;8.98;3.33;;;8.00;99.90;;;;;;5061367;28;20227;-65
2022/11/24 06:18:44;;;;;;;11.73;2.90;;;8.00;99.90;;;;;;5062439;28;20265;-65
2022/11/24 06:21:12;;;;;;;13.18;3.38;;;7.90;99.90;;;;;;5062543;28;20548;-65
2022/11/24 06:23:41;;;;;;;13.02;3.13;;;7.90;99.90;;;;;;5061652;28;20611;-65
2022/11/24 06:26:09;;;;;;;11.63;3.30;;;7.90;99.90;;;;;;5064114;28;20192;-65
2022/11/24 06:28:37;;;;;;;16.85;2.60;;;7.90;99.90;;;;;;5061391;28;20232;-65
2022/11/24 06:31:05;;;;;;;10.65;3.15;;;7.90;99.90;;;;;;5062421;28;20199;-66
2022/11/24 06:33:34;;;;;;;13.27;4.25;;;7.90;99.90;;;;;;5071276;28;20204;-65
2022/11/24 06:36:03;;;;;;;12.80;4.13;;;7.90;99.90;;;;;;5074530;28;20204;-66
2022/11/24 06:38:34;;;;;;;14.25;3.90;;;7.90;99.90;;;;;;5071777;28;20215;-65
2022/11/24 06:41:05;;;;;;;9.73;3.33;;;7.80;99.90;;;;;;5063284;28;20207;-65
2022/11/24 06:43:34;;;;;;;19.30;3.97;;;7.80;99.90;;;;;;5063680;28;20189;-65
2022/11/24 06:46:02;;;;;;;20.35;4.00;;;7.80;99.90;;;;;;5064172;28;20571;-65
2022/11/24 06:48:31;;;;;;;10.13;3.13;;;7.80;99.90;;;;;;5074782;28;20207;-65
2022/11/24 06:50:59;;;;;;;18.52;4.65;;;7.80;99.90;;;;;;5074014;28;20195;-65
2022/11/24 06:53:29;;;;;;;11.40;4.15;;;7.80;99.90;;;;;;5074449;28;20204;-65
2022/11/24 06:55:59;;;;;;;20.15;4.60;;;7.80;99.90;;;;;;5073633;28;20212;-66
2022/11/24 06:58:28;;;;;;;12.43;4.03;;;7.80;99.90;;;;;;5073765;28;20214;-65
2022/11/24 07:00:56;;;;;;;16.63;3.30;;;7.80;99.90;;;;;;5073182;28;20255;-65
2022/11/24 07:03:24;;;;;;;21.02;3.80;;;7.80;99.90;;;;;;5072742;28;20650;-65
2022/11/24 07:05:57;;;;;;;24.38;5.50;;;7.80;99.90;;;;;;5073301;28;20208;-64
2022/11/24 07:08:25;;;;;;;11.40;3.25;;;7.80;99.90;;;;;;5074101;28;20235;-64
2022/11/24 07:10:53;;;;;;;19.73;4.15;;;7.80;99.90;;;;;;5062225;28;20563;-64
2022/11/24 07:13:21;;;;;;;15.55;3.85;;;7.80;99.90;;;;;;5061293;28;20575;-64
2022/11/24 07:15:50;;;;;;;16.70;4.38;;;7.80;99.90;;;;;;5057331;28;20220;-65
2022/11/24 07:18:18;;;;;;;17.73;4.25;;;7.80;99.90;;;;;;5075030;28;21158;-65
2022/11/24 07:20:46;;;;;;;19.38;4.57;;;7.80;99.90;;;;;;5095940;28;20199;-64
2022/11/24 07:23:14;;;;;;;13.77;3.47;;;7.90;99.90;;;;;;5091667;28;20549;-66
2022/11/24 07:25:42;;;;;;;15.82;3.50;;;7.90;99.90;;;;;;5069496;28;20204;-66
2022/11/24 07:28:10;;;;;;;16.88;2.70;;;7.90;99.90;;;;;;5073389;28;20215;-66
2022/11/24 07:30:37;;;;;;;13.90;3.10;;;7.90;99.90;;;;;;5073882;28;20211;-66
2022/11/24 07:33:07;;;;;;;11.57;3.22;;;7.90;99.90;;;;;;5073849;28;20207;-66
2022/11/24 07:35:34;;;;;;;5.18;2.65;;;7.80;99.90;;;;;;5073306;28;20199;-66
2022/11/24 07:38:02;;;;;;;12.60;2.85;;;7.90;99.90;;;;;;5074055;28;20269;-65
2022/11/24 07:40:30;;;;;;;9.43;2.92;;;7.90;99.90;;;;;;5074100;28;20204;-64
2022/11/24 07:43:00;;;;;;;11.32;2.75;;;7.90;99.90;;;;;;5073075;28;20204;-64
2022/11/24 07:45:28;;;;;;;18.30;2.97;;;7.90;99.90;;;;;;5073404;28;20215;-64
2022/11/24 07:47:56;;;;;;;8.00;2.67;;;7.90;99.90;;;;;;5072689;28;20195;-65
2022/11/24 07:50:25;;;;;;;9.82;3.10;;;7.90;99.90;;;;;;5070794;28;20205;-65
2022/11/24 07:52:53;;;;;;;12.35;3.95;;;7.90;99.90;;;;;;5052970;28;20208;-65
2022/11/24 07:55:21;;;;;;;6.85;2.50;;;7.90;99.90;;;;;;5053332;28;20207;-65
2022/11/24 07:57:49;;;;;;;14.50;3.55;;;7.90;99.90;;;;;;5052250;28;20220;-65
2022/11/24 08:00:18;;;;;;;7.63;2.45;;;7.90;99.90;;;;;;5053360;28;20568;-65
2022/11/24 08:02:46;;;;;;;10.30;3.42;;;7.90;99.90;;;;;;5052032;28;20224;-65
2022/11/24 08:05:13;;;;;;;7.50;2.70;;;7.90;99.90;;;;;;5051657;28;20209;-64
2022/11/24 08:07:43;;;;;;;6.60;2.80;;;7.90;99.90;;;;;;5052960;28;20201;-64
2022/11/24 08:10:11;;;;;;;12.27;2.20;;;7.90;99.90;;;;;;5052942;28;20215;-65
2022/11/24 08:12:38;;;;;;;6.72;2.92;;;8.00;99.90;;;;;;5052993;28;20239;-67
2022/11/24 08:15:08;;;;;;;7.03;2.47;;;8.00;99.90;;;;;;5052903;28;20200;-64
2022/11/24 08:17:36;;;;;;;5.05;1.92;;;8.00;99.90;;;;;;5053464;28;20216;-65
2022/11/24 08:20:05;;;;;;;2.55;1.83;;;8.00;99.90;;;;;;5052703;28;20547;-65
2022/11/24 08:22:33;;;;;;;7.50;2.00;;;7.90;99.90;;;;;;5053170;28;20215;-64
2022/11/24 08:25:02;;;;;;;3.90;2.08;;;8.00;99.90;;;;;;5052687;28;20211;-64
2022/11/24 08:27:31;;;;;;;12.32;4.32;;;8.00;99.90;;;;;;5053485;28;20274;-64
2022/11/24 08:29:58;;;;;;;2.88;1.40;;;8.00;99.90;;;;;;5052207;28;20594;-64
2022/11/24 08:32:26;;;;;;;2.13;1.92;;;8.00;99.90;;;;;;5053444;28;20196;-65
2022/11/24 08:34:54;;;;;;;6.57;1.65;;;8.00;99.90;;;;;;5052906;28;20275;-64
2022/11/24 08:37:24;;;;;;;5.47;1.45;;;8.00;99.90;;;;;;5051752;28;20229;-64
2022/11/24 08:39:52;;;;;;;5.00;1.67;;;8.10;99.90;;;;;;5053102;28;20204;-66
2022/11/24 08:42:21;;;;;;;5.28;1.70;;;8.00;99.90;;;;;;5053115;28;20204;-67
2022/11/24 08:44:49;;;;;;;2.65;1.65;;;8.00;99.90;;;;;;5052215;28;20236;-64
2022/11/24 08:47:17;;;;;;;4.10;1.70;;;8.00;99.90;;;;;;5051854;28;20208;-65
2022/11/24 08:49:45;;;;;;;1.95;1.50;;;8.00;99.90;;;;;;5053527;28;20216;-64
2022/11/24 08:52:13;;;;;;;3.38;1.00;;;8.00;99.90;;;;;;5050202;28;20581;-65
2022/11/24 08:54:43;;;;;;;1.55;1.45;;;8.10;99.90;;;;;;5053028;28;20216;-65
2022/11/24 08:57:11;;;;;;;2.78;1.38;;;8.00;99.90;;;;;;5051253;28;20667;-64
2022/11/24 08:59:40;;;;;;;3.28;1.15;;;8.10;99.90;;;;;;5052790;28;20204;-64
2022/11/24 09:02:11;;;;;;;3.95;1.35;;;8.20;99.90;;;;;;5050464;28;20396;-64
2022/11/24 09:04:39;;;;;;;1.45;1.15;;;8.20;99.90;;;;;;5051864;28;20188;-64
2022/11/24 09:07:10;;;;;;;1.10;0.90;;;8.20;99.90;;;;;;5051525;28;20261;-65
2022/11/24 09:09:38;;;;;;;1.33;1.00;;;8.20;99.90;;;;;;5052754;28;20632;-65
2022/11/24 09:12:08;;;;;;;4.32;2.42;;;8.20;99.90;;;;;;5051565;28;20282;-65
2022/11/24 09:14:36;;;;;;;1.00;0.90;;;8.30;99.90;;;;;;5052263;28;20188;-65
2022/11/24 09:17:05;;;;;;;3.78;1.40;;;8.20;99.90;;;;;;5050377;28;20211;-65
2022/11/24 09:19:34;;;;;;;2.75;1.42;;;8.30;99.90;;;;;;5053982;28;20212;-65
2022/11/24 09:22:06;;;;;;;1.73;0.88;;;8.30;99.90;;;;;;5058221;28;20275;-64
2022/11/24 09:24:34;;;;;;;4.70;1.55;;;8.40;99.90;;;;;;5060019;28;20310;-65
2022/11/24 09:27:02;;;;;;;3.00;1.42;;;8.40;99.90;;;;;;5052066;28;20678;-65
2022/11/24 09:29:30;;;;;;;4.40;1.63;;;8.40;99.90;;;;;;5051764;28;20232;-65
2022/11/24 09:31:58;;;;;;;3.65;1.77;;;8.40;99.90;;;;;;5052327;28;20204;-65
2022/11/24 09:34:27;;;;;;;3.33;1.58;;;8.50;99.90;;;;;;5052547;28;20200;-66
2022/11/24 09:36:57;;;;;;;3.10;1.70;;;8.50;99.90;;;;;;5052423;28;20216;-65
2022/11/24 09:39:25;;;;;;;2.63;1.60;;;8.70;99.90;;;;;;5052082;28;20216;-65
2022/11/24 09:42:12;;;;;;;5.05;1.50;;;8.60;99.90;;;;;;5054357;28;20207;-65
2022/11/24 09:45:08;;;;;;;2.83;0.93;;;8.70;99.90;;;;;;5056291;28;20192;-65
2022/11/24 09:47:51;;;;;;;2.05;1.02;;;8.80;99.90;;;;;;5056409;28;20763;-66
2022/11/24 09:50:23;;;;;;;3.10;1.48;;;8.70;99.90;;;;;;5055883;28;20207;-66
2022/11/24 09:53:00;;;;;;;7.65;1.27;;;8.70;99.90;;;;;;5056326;28;20184;-65
2022/11/24 09:55:42;;;;;;;5.10;1.45;;;8.70;99.90;;;;;;5055905;28;20191;-66
2022/11/24 09:58:17;;;;;;;1.95;1.30;;;8.80;99.90;;;;;;5055985;28;20575;-65
2022/11/24 10:00:46;;;;;;;1.98;1.00;;;8.70;99.90;;;;;;5055475;28;20185;-65
2022/11/24 10:03:18;;;;;;;2.65;1.15;;;8.70;99.90;;;;;;5054885;28;20223;-65
2022/11/24 10:05:50;;;;;;;1.27;1.17;;;8.80;99.90;;;;;;5054308;28;20200;-65
2022/11/24 10:08:31;;;;;;;3.58;1.33;;;8.80;99.90;;;;;;5056321;28;20196;-65
2022/11/24 10:11:01;;;;;;;3.53;1.85;;;8.90;99.90;;;;;;5055219;28;20228;-64
2022/11/24 10:13:45;;;;;;;3.47;1.73;;;9.10;99.90;;;;;;5068938;28;20655;-64
2022/11/24 10:16:27;;;;;;;2.28;1.85;;;9.30;99.90;;;;;;5068440;28;20204;-66
2022/11/24 10:19:04;;;;;;;8.52;1.80;;;9.40;99.90;;;;;;5054410;28;20209;-66
2022/11/24 10:21:55;;;;;;;2.65;1.88;;;9.70;99.90;;;;;;5055842;28;20557;-65
2022/11/24 10:24:46;;;;;;;7.35;2.28;;;9.70;99.90;;;;;;5055339;28;20624;-66
2022/11/24 10:27:18;;;;;;;2.70;1.67;;;9.50;99.90;;;;;;5070495;28;20231;-66
2022/11/24 10:29:54;;;;;;;4.60;1.30;;;9.40;99.90;;;;;;5074362;28;20223;-64
2022/11/24 10:32:30;;;;;;;2.25;1.55;;;9.30;99.90;;;;;;5076199;28;20176;-64
2022/11/24 10:35:02;;;;;;;3.35;1.50;;;9.40;99.90;;;;;;5075381;28;20192;-64
2022/11/24 10:37:37;;;;;;;6.78;2.92;;;9.50;99.90;;;;;;5075258;28;20556;-65
2022/11/24 10:40:12;;;;;;;8.55;2.03;;;9.60;99.90;;;;;;5069802;28;20211;-65
2022/11/24 10:42:41;;;;;;;2.85;1.67;;;9.60;99.90;;;;;;5074971;28;20573;-65
2022/11/24 10:45:17;;;;;;;5.45;2.60;;;9.60;99.90;;;;;;5074861;28;20208;-65
2022/11/24 10:47:46;;;;;;;4.20;1.67;;;9.50;99.90;;;;;;5067016;28;20639;-65
2022/11/24 10:50:20;;;;;;;3.05;2.00;;;9.70;99.90;;;;;;5055417;28;20197;-65
2022/11/24 10:53:00;;;;;;;6.30;2.40;;;9.70;99.90;;;;;;5056179;28;20203;-65
2022/11/24 10:56:02;;;;;;;6.38;2.63;;;9.70;99.90;;;;;;5072775;28;20571;-65
2022/11/24 10:58:32;;;;;;;4.72;2.00;;;9.60;99.90;;;;;;5073224;28;20678;-65
2022/11/24 11:01:01;;;;;;;7.85;3.55;;;9.70;99.90;;;;;;5072882;28;20199;-65
2022/11/24 11:03:32;;;;;;;7.63;2.75;;;9.60;99.90;;;;;;5073519;28;20211;-66
2022/11/24 11:06:03;;;;;;;3.47;2.90;;;9.70;99.90;;;;;;5058363;28;20208;-66
2022/11/24 11:08:31;;;;;;;4.47;2.45;;;9.80;99.90;;;;;;5056334;28;20207;-65
2022/11/24 11:11:18;;;;;;;4.22;1.98;;;9.70;99.90;;;;;;5062763;28;20587;-65
2022/11/24 11:13:55;;;;;;;5.25;2.13;;;9.80;99.90;;;;;;5058845;28;20598;-66
2022/11/24 11:16:32;;;;;;;11.60;2.20;;;9.80;99.90;;;;;;5062833;28;20650;-65
2022/11/24 11:19:02;;;;;;;6.80;2.08;;;10.00;99.90;;;;;;5063099;28;20209;-65
2022/11/24 11:21:35;;;;;;;8.30;2.20;;;10.20;99.90;;;;;;5061565;28;20553;-63
2022/11/24 11:24:05;;;;;;;7.60;2.15;;;10.40;99.90;;;;;;5063080;28;20181;-64
2022/11/24 11:26:38;;;;;;;9.57;2.10;;;11.00;99.90;;;;;;5062324;28;20629;-65
2022/11/24 11:29:19;;;;;;;5.97;1.95;;;11.10;99.90;;;;;;5060871;28;20269;-64
2022/11/24 11:32:01;;;;;;;6.97;2.10;;;11.50;99.90;;;;;;5063313;28;20193;-65
2022/11/24 11:34:35;;;;;;;8.33;2.67;;;11.50;99.90;;;;;;5063534;28;21157;-65
2022/11/24 11:37:04;;;;;;;3.70;2.37;;;11.60;99.90;;;;;;5052904;28;20601;-64
2022/11/24 11:39:35;;;;;;;5.88;2.80;;;11.60;99.90;;;;;;5051713;28;20633;-65
2022/11/24 11:42:17;;;;;;;4.68;2.33;;;10.80;99.90;;;;;;5073012;28;20204;-65
2022/11/24 11:44:48;;;;;;;14.57;3.10;;;10.80;99.90;;;;;;5073723;28;20184;-64
2022/11/24 11:47:23;;;;;;;4.90;2.10;;;10.70;99.90;;;;;;5072542;28;20376;-65
2022/11/24 11:49:51;;;;;;;12.27;2.75;;;10.90;99.90;;;;;;5067854;28;20610;-65
2022/11/24 11:52:55;;;;;;;7.55;2.35;;;10.80;99.90;;;;;;5073802;28;20203;-65
2022/11/24 11:55:41;;;;;;;10.40;2.38;;;10.90;99.90;;;;;;5073358;28;20198;-65
2022/11/24 11:58:34;;;;;;;6.18;2.83;;;10.90;99.90;;;;;;5062194;28;20207;-65
2022/11/24 12:01:18;;;;;;;7.57;2.95;;;10.80;99.90;;;;;;5054518;28;20246;-65
2022/11/24 12:03:56;;;;;;;4.88;2.75;;;10.70;99.90;;;;;;5060696;28;20207;-65
2022/11/24 12:06:39;;;;;;;6.50;2.70;;;10.80;99.90;;;;;;5059404;28;20191;-66
2022/11/24 12:09:19;;;;;;;8.25;2.30;;;10.70;99.90;;;;;;5052889;28;20189;-65
2022/11/24 12:11:59;;;;;;;5.97;2.20;;;10.70;99.90;;;;;;5053909;28;20231;-65
2022/11/24 12:14:39;;;;;;;9.35;2.30;;;10.90;99.90;;;;;;5059040;28;20196;-65
2022/11/24 12:17:15;;;;;;;12.05;3.20;;;11.10;99.90;;;;;;5057384;28;20207;-65
2022/11/24 12:19:57;;;;;;;10.07;3.20;;;11.10;99.90;;;;;;5059231;28;20682;-63
2022/11/24 12:22:39;;;;;;;7.65;2.50;;;11.10;99.90;;;;;;5056185;28;20188;-64
2022/11/24 12:25:20;;;;;;;8.70;2.50;;;11.00;99.90;;;;;;5055415;28;20192;-65
2022/11/24 12:28:16;;;;;;;13.50;6.20;;;10.90;99.90;;;;;;5062658;28;20203;-65
2022/11/24 12:31:03;;;;;;;4.05;2.25;;;10.90;99.90;;;;;;5053329;28;20196;-65
2022/11/24 12:34:06;;;;;;;27.25;14.95;;;11.10;99.90;;;;;;5058547;28;20588;-64
2022/11/24 12:36:50;;;;;;;5.10;2.53;;;11.80;99.90;;;;;;5058227;28;20229;-62
2022/11/24 12:39:25;;;;;;;9.87;2.87;;;12.60;99.90;;;;;;5057933;28;21211;-63
2022/11/24 12:42:05;;;;;;;10.00;3.07;;;12.90;99.90;;;;;;5056566;28;20940;-62
2022/11/24 12:45:00;;;;;;;5.80;2.43;;;13.30;99.90;;;;;;5061310;28;20608;-63
2022/11/24 12:47:41;;;;;;;10.70;5.07;;;13.60;99.90;;;;;;5058205;28;20961;-64
2022/11/24 12:50:12;;;;;;;13.70;6.73;;;13.60;99.90;;;;;;5067212;28;20608;-64
2022/11/24 12:52:46;;;;;;;17.10;3.73;;;13.40;99.90;;;;;;5068983;28;20598;-64
2022/11/24 12:55:21;;;;;;;9.00;3.60;;;13.60;99.90;;;;;;5071969;28;20579;-63
2022/11/24 12:58:44;;;;;;;7.10;3.20;;;13.30;99.90;;;;;;5071023;28;21044;-65
2022/11/24 13:01:24;;;;;;;5.20;3.20;;;13.90;99.90;;;;;;5060439;28;20617;-66
2022/11/24 13:04:06;;;;;;;5.73;2.87;;;14.40;99.90;;;;;;5051263;28;20642;-65
2022/11/24 13:06:46;;;;;;;11.67;4.10;;;14.00;99.90;;;;;;5051739;28;20575;-65
2022/11/24 13:09:14;;;;;;;5.53;3.53;;;14.20;99.90;;;;;;5051738;28;20611;-65
2022/11/24 13:11:44;;;;;;;5.90;3.90;;;13.80;99.90;;;;;;5049092;28;21035;-65
2022/11/24 13:14:16;;;;;;;7.70;3.37;;;13.30;99.90;;;;;;5064684;28;20619;-65
2022/11/24 13:16:56;;;;;;;9.07;3.90;;;12.90;99.90;;;;;;5051711;28;20598;-65